Time;durP1;ratioP1;P1;durP2;ratioP2;P2;SDS_P1;SDS_P2;PMS_P1;PMS_P2;Temp;Humidity;BMP_temperature;BMP_pressure;BME280_temperature;BME280_humidity;BME280_pressure;Samples;Min_cycle;Max_cycle;Signal;HPM_P1;HPM_P2
2022/02/15 00:00:31;;;;;;;7.70;3.35;;;;;;;-0.61;64.46;99497.06;5134353;27;20096;-57
2022/02/15 00:02:57;;;;;;;10.30;4.47;;;;;;;-0.59;64.37;99495.41;5111791;28;20172;-56
2022/02/15 00:05:23;;;;;;;9.55;4.45;;;;;;;-0.59;64.37;99497.09;5129745;28;20129;-54
2022/02/15 00:07:48;;;;;;;10.57;3.95;;;;;;;-0.61;64.32;99494.53;5130904;28;20047;-55
2022/02/15 00:10:15;;;;;;;8.00;3.63;;;;;;;-0.61;64.41;99491.97;5130769;27;20039;-58
2022/02/15 00:12:41;;;;;;;14.38;6.05;;;;;;;-0.59;64.46;99497.09;5130525;28;20410;-57
2022/02/15 00:15:09;;;;;;;8.88;3.95;;;;;;;-0.59;64.56;99486.88;5112906;28;20043;-59
2022/02/15 00:17:36;;;;;;;9.95;4.22;;;;;;;-0.59;64.49;99479.22;5110052;27;20133;-57
2022/02/15 00:20:04;;;;;;;8.70;3.83;;;;;;;-0.60;64.77;99483.47;5129646;28;20065;-56
2022/02/15 00:22:30;;;;;;;7.53;2.58;;;;;;;-0.60;64.64;99492.81;5130312;28;20043;-55
2022/02/15 00:24:55;;;;;;;5.40;3.25;;;;;;;-0.63;64.91;99485.16;5130429;28;20050;-57
2022/02/15 00:27:21;;;;;;;10.88;5.45;;;;;;;-0.60;64.69;99496.25;5130932;28;20043;-57
2022/02/15 00:29:46;;;;;;;9.80;4.93;;;;;;;-0.62;64.71;99481.75;5130645;28;20035;-56
2022/02/15 00:32:12;;;;;;;10.07;4.80;;;;;;;-0.69;64.60;99472.34;5131164;28;20521;-54
2022/02/15 00:34:38;;;;;;;8.55;4.68;;;;;;;-0.75;64.90;99473.16;5130330;28;20046;-55
2022/02/15 00:37:04;;;;;;;11.80;5.22;;;;;;;-0.66;64.75;99480.88;5112274;28;20046;-56
2022/02/15 00:39:29;;;;;;;7.88;3.60;;;;;;;-0.63;64.97;99503.03;5111351;28;20039;-57
2022/02/15 00:41:55;;;;;;;9.80;3.58;;;;;;;-0.65;65.32;99500.47;5130494;28;20130;-56
2022/02/15 00:44:21;;;;;;;7.88;3.60;;;;;;;-0.67;65.19;99508.94;5130970;28;20047;-59
2022/02/15 00:46:48;;;;;;;4.85;2.60;;;;;;;-0.81;65.29;99457.78;5112495;28;20046;-56
2022/02/15 00:49:15;;;;;;;10.10;4.95;;;;;;;-0.67;65.32;99496.16;5112316;27;20147;-58
2022/02/15 00:51:41;;;;;;;11.80;3.70;;;;;;;-0.69;65.67;99500.44;5115499;27;20043;-56
2022/02/15 00:54:07;;;;;;;9.82;4.60;;;;;;;-0.79;65.79;99493.53;5090024;28;20430;-58
2022/02/15 00:56:33;;;;;;;9.65;4.93;;;;;;;-0.71;65.57;99514.88;5131219;27;20050;-58
2022/02/15 00:58:59;;;;;;;14.85;4.90;;;;;;;-0.74;65.65;99502.09;5115691;27;20046;-55
2022/02/15 01:01:25;;;;;;;12.15;5.38;;;;;;;-0.71;65.60;99505.50;5115299;27;20047;-55
2022/02/15 01:03:50;;;;;;;6.10;3.28;;;;;;;-0.71;65.90;99505.50;5115845;27;20126;-55
2022/02/15 01:06:16;;;;;;;9.60;5.03;;;;;;;-0.72;65.91;99497.84;5132856;27;20039;-57
2022/02/15 01:08:45;;;;;;;10.47;5.07;;;;;;;-0.71;66.22;99502.97;5134324;27;20031;-57
2022/02/15 01:11:12;;;;;;;9.73;5.15;;;;;;;-0.71;66.21;99513.16;5133622;27;20031;-58
2022/02/15 01:13:38;;;;;;;6.97;3.50;;;;;;;-0.79;66.16;99488.44;5133865;27;20125;-56
2022/02/15 01:16:06;;;;;;;8.18;3.95;;;;;;;-0.69;66.30;99505.53;5115190;27;20092;-54
2022/02/15 01:18:32;;;;;;;14.27;5.95;;;;;;;-0.67;66.34;99503.81;5115729;27;20421;-55
2022/02/15 01:20:57;;;;;;;9.90;5.75;;;;;;;-0.67;66.16;99514.88;5134082;27;20448;-57
2022/02/15 01:23:23;;;;;;;14.13;5.53;;;;;;;-0.67;66.66;99516.59;5134346;27;20043;-57
2022/02/15 01:25:50;;;;;;;11.20;5.50;;;;;;;-0.67;66.49;99526.78;5132453;27;20039;-58
2022/02/15 01:28:16;;;;;;;10.63;5.55;;;;;;;-0.68;66.58;99515.72;5115618;27;20049;-59
2022/02/15 01:30:42;;;;;;;8.07;4.35;;;;;;;-0.64;66.67;99519.19;5133107;27;20391;-56
2022/02/15 01:33:08;;;;;;;11.43;4.10;;;;;;;-0.64;66.62;99524.28;5115881;27;20100;-58
2022/02/15 01:35:34;;;;;;;11.75;6.13;;;;;;;-0.65;66.61;99540.44;5114532;27;20043;-58
2022/02/15 01:38:00;;;;;;;8.38;3.97;;;;;;;-0.64;66.96;99526.84;5111621;27;20039;-58
2022/02/15 01:40:26;;;;;;;9.32;4.35;;;;;;;-0.64;67.12;99543.00;5115114;27;20049;-57
2022/02/15 01:42:52;;;;;;;10.18;4.97;;;;;;;-0.64;66.91;99547.25;5099970;27;20035;-55
2022/02/15 01:45:19;;;;;;;13.80;5.40;;;;;;;-0.69;67.08;99538.72;5115375;27;20047;-58
2022/02/15 01:47:46;;;;;;;9.32;4.93;;;;;;;-0.71;67.28;99540.38;5114513;27;20126;-57
2022/02/15 01:50:12;;;;;;;10.57;4.80;;;;;;;-0.73;67.55;99540.38;5131937;27;20410;-57
2022/02/15 01:52:39;;;;;;;11.98;5.53;;;;;;;-0.73;67.76;99549.75;5097634;27;20085;-57
2022/02/15 01:55:08;;;;;;;13.00;5.72;;;;;;;-0.75;67.51;99542.06;5115190;27;20070;-55
2022/02/15 01:57:35;;;;;;;10.73;5.78;;;;;;;-0.77;67.71;99548.84;5130433;27;20042;-57
2022/02/15 02:00:27;;;;;;;12.07;5.97;;;;;;;-0.76;67.77;99547.16;5122223;27;20055;-57
2022/02/15 02:02:58;;;;;;;13.20;5.32;;;;;;;-0.77;68.04;99555.63;5131453;27;20047;-55
2022/02/15 02:08:11;;;;;;;11.02;5.63;;;;;;;-0.82;68.47;99550.50;5114780;27;20027;-56
2022/02/15 02:10:42;;;;;;;17.25;6.55;;;;;;;-0.86;68.84;99552.19;5113993;27;20027;-55
2022/02/15 02:13:16;;;;;;;12.50;6.28;;;;;;;-0.96;69.24;99531.66;5131856;27;20121;-54
2022/02/15 02:15:43;;;;;;;14.73;6.32;;;;;;;-0.87;68.90;99550.47;5114305;27;20039;-55
2022/02/15 02:18:28;;;;;;;10.30;4.53;;;;;;;-0.87;68.85;99553.00;5132454;27;20344;-56
2022/02/15 02:21:04;;;;;;;12.55;4.82;;;;;;;-0.96;69.55;99540.19;5131969;27;20042;-56
2022/02/15 02:23:30;;;;;;;10.98;5.53;;;;;;;-0.90;69.32;99541.94;5096624;27;20514;-56
2022/02/15 02:26:02;;;;;;;13.55;5.93;;;;;;;-0.93;69.77;99555.50;5113881;27;20043;-55
2022/02/15 02:28:32;;;;;;;13.52;5.82;;;;;;;-0.93;69.87;99564.84;5111714;27;20131;-56
2022/02/15 02:30:58;;;;;;;14.90;5.70;;;;;;;-0.96;70.00;99568.25;5100972;28;20134;-58
2022/02/15 02:33:24;;;;;;;16.73;6.72;;;;;;;-0.95;70.13;99564.88;5132868;27;20471;-57
2022/02/15 02:35:59;;;;;;;13.98;6.70;;;;;;;-0.93;69.97;99569.94;5114191;27;20471;-57
2022/02/15 02:38:26;;;;;;;9.75;4.38;;;;;;;-0.96;70.32;99570.78;5114279;27;20038;-57
2022/02/15 02:40:54;;;;;;;12.23;4.07;;;;;;;-0.99;70.51;99568.19;5131595;27;20043;-58
2022/02/15 02:43:20;;;;;;;13.63;5.55;;;;;;;-1.00;70.56;99566.50;5113546;27;20043;-57
2022/02/15 02:45:46;;;;;;;9.80;4.50;;;;;;;-1.04;70.91;99569.00;5113786;27;20402;-57
2022/02/15 02:48:12;;;;;;;7.90;4.47;;;;;;;-1.02;71.24;99574.97;5113717;27;20046;-56
2022/02/15 02:50:38;;;;;;;10.70;5.22;;;;;;;-1.04;71.56;99574.94;5113511;27;20050;-58
2022/02/15 02:53:09;;;;;;;10.30;5.57;;;;;;;-1.05;71.65;99582.63;5132223;27;20038;-58
2022/02/15 02:55:36;;;;;;;13.68;6.15;;;;;;;-1.07;71.72;99582.59;5110680;27;20622;-56
2022/02/15 02:58:02;;;;;;;12.65;5.93;;;;;;;-1.14;71.61;99565.50;5113703;27;20047;-55
2022/02/15 03:00:30;;;;;;;12.95;5.53;;;;;;;-1.19;72.08;99556.09;5113620;27;20055;-55
2022/02/15 03:03:16;;;;;;;14.60;6.50;;;;;;;-1.10;72.01;99581.72;5130971;27;20510;-57
2022/02/15 03:05:47;;;;;;;8.52;3.08;;;;;;;-1.07;72.08;99581.72;5104150;28;20047;-57
2022/02/15 03:08:12;;;;;;;14.68;6.50;;;;;;;-1.09;72.36;99581.69;5123290;27;20031;-55
2022/02/15 03:10:38;;;;;;;12.20;5.50;;;;;;;-1.19;72.18;99566.28;5131463;27;20035;-53
2022/02/15 03:13:09;;;;;;;14.30;6.38;;;;;;;-1.09;72.49;99586.81;5129004;27;20520;-55
2022/02/15 03:15:35;;;;;;;8.40;4.88;;;;;;;-1.11;72.84;99578.31;5113267;27;20081;-57
2022/02/15 03:18:02;;;;;;;16.95;6.95;;;;;;;-1.12;73.10;99576.59;5095369;27;20043;-56
2022/02/15 03:20:29;;;;;;;9.05;5.00;;;;;;;-1.13;73.06;99586.75;5131759;27;20557;-58
2022/02/15 03:22:55;;;;;;;13.18;6.82;;;;;;;-1.13;73.33;99585.06;5130241;27;20072;-55
2022/02/15 03:25:22;;;;;;;10.95;5.68;;;;;;;-1.13;73.52;99586.75;5130025;27;20536;-57
2022/02/15 03:27:49;;;;;;;9.38;5.10;;;;;;;-1.13;73.29;99590.16;5113009;27;20047;-59
2022/02/15 03:30:17;;;;;;;10.25;4.78;;;;;;;-1.12;73.58;99593.56;5130605;27;20050;-57
2022/02/15 03:32:44;;;;;;;14.95;7.15;;;;;;;-1.15;73.67;99591.84;5130771;27;20243;-58
2022/02/15 03:35:10;;;;;;;10.77;4.70;;;;;;;-1.14;73.93;99590.16;5129146;27;20502;-57
2022/02/15 03:37:39;;;;;;;12.15;5.80;;;;;;;-1.12;73.83;99591.88;5095783;27;20442;-57
2022/02/15 03:40:06;;;;;;;13.10;6.18;;;;;;;-1.14;73.71;99592.69;5111487;27;20042;-55
2022/02/15 03:45:18;;;;;;;13.55;6.80;;;;;;;-1.13;73.96;99595.28;5130156;27;20039;-56
2022/02/15 03:48:07;;;;;;;15.75;6.55;;;;;;;-1.15;74.15;99601.22;5130014;27;20050;-57
2022/02/15 03:50:37;;;;;;;17.50;6.95;;;;;;;-1.18;74.14;99588.41;5076840;27;20096;-59
2022/02/15 03:53:06;;;;;;;14.85;7.15;;;;;;;-1.17;74.27;99597.78;5130211;27;20070;-60
2022/02/15 03:55:34;;;;;;;12.45;5.85;;;;;;;-1.19;74.64;99591.78;5129956;27;20137;-56
2022/02/15 03:58:00;;;;;;;13.93;6.53;;;;;;;-1.19;74.78;99600.28;5095605;28;20050;-58
2022/02/15 04:00:26;;;;;;;12.23;6.50;;;;;;;-1.19;74.90;99605.41;5111742;27;20047;-57
2022/02/15 04:03:02;;;;;;;11.45;5.18;;;;;;;-1.20;74.81;99613.06;5112136;28;20112;-57
2022/02/15 04:05:28;;;;;;;11.07;5.18;;;;;;;-1.23;74.95;99621.50;5129716;28;20640;-59
2022/02/15 04:07:57;;;;;;;13.15;6.20;;;;;;;-1.21;74.96;99609.66;5113257;28;20103;-55
2022/02/15 04:10:23;;;;;;;14.07;6.15;;;;;;;-1.22;75.13;99614.72;5129668;28;20059;-59
2022/02/15 04:12:50;;;;;;;17.33;6.20;;;;;;;-1.36;75.14;99597.56;5111364;28;20135;-56
2022/02/15 04:15:17;;;;;;;11.77;5.95;;;;;;;-1.24;75.24;99611.28;5112570;28;20035;-59
2022/02/15 04:17:49;;;;;;;14.63;5.72;;;;;;;-1.24;75.51;99613.84;5127931;27;20092;-55
2022/02/15 04:20:15;;;;;;;12.50;6.50;;;;;;;-1.25;75.65;99612.13;5112309;28;20043;-55
2022/02/15 04:22:42;;;;;;;12.23;5.60;;;;;;;-1.30;75.53;99607.81;5129689;28;20134;-58
2022/02/15 04:25:11;;;;;;;16.75;6.18;;;;;;;-1.28;75.65;99607.84;5133627;27;20514;-55
2022/02/15 04:27:38;;;;;;;17.83;8.10;;;;;;;-1.27;75.49;99607.03;5133614;27;20144;-57
2022/02/15 04:30:05;;;;;;;11.20;6.25;;;;;;;-1.29;75.52;99612.09;5116173;27;20043;-57
2022/02/15 04:32:32;;;;;;;13.95;6.95;;;;;;;-1.49;75.39;99579.56;5133981;27;20046;-57
2022/02/15 04:34:59;;;;;;;15.23;6.55;;;;;;;-1.32;75.81;99617.16;5116474;27;20049;-59
2022/02/15 04:37:25;;;;;;;13.77;7.00;;;;;;;-1.42;75.81;99609.41;5123726;27;20067;-57
2022/02/15 04:39:52;;;;;;;17.25;6.53;;;;;;;-1.33;75.93;99622.25;5133201;27;20124;-57
2022/02/15 04:42:19;;;;;;;15.68;6.70;;;;;;;-1.33;75.74;99629.91;5099853;27;20064;-55
2022/02/15 04:44:45;;;;;;;18.20;7.90;;;;;;;-1.32;75.77;99627.38;5115077;27;20532;-58
2022/02/15 04:47:18;;;;;;;18.13;7.68;;;;;;;-1.31;75.60;99633.34;5126851;27;20066;-56
2022/02/15 04:49:44;;;;;;;9.93;5.28;;;;;;;-1.31;75.42;99628.22;5133846;27;20063;-56
2022/02/15 04:52:10;;;;;;;18.85;8.02;;;;;;;-1.31;75.83;99636.72;5132810;27;20043;-56
2022/02/15 04:54:36;;;;;;;12.43;6.03;;;;;;;-1.31;75.77;99639.25;5116256;27;20039;-61
2022/02/15 04:57:02;;;;;;;14.73;6.95;;;;;;;-1.37;75.56;99628.16;5115066;27;20043;-57
2022/02/15 04:59:29;;;;;;;14.57;7.35;;;;;;;-1.37;75.58;99617.94;5110990;27;20039;-57
2022/02/15 05:01:55;;;;;;;10.75;5.35;;;;;;;-1.28;75.37;99641.00;5115156;27;20489;-59
2022/02/15 05:07:07;;;;;;;18.00;6.68;;;;;;;-1.39;75.50;99629.81;5132410;27;20614;-58
2022/02/15 05:09:39;;;;;;;12.25;5.18;;;;;;;-1.26;75.38;99646.13;5114194;27;20039;-58
2022/02/15 05:12:05;;;;;;;15.77;7.35;;;;;;;-1.29;75.34;99631.63;5114117;27;20069;-58
2022/02/15 05:14:33;;;;;;;11.63;4.75;;;;;;;-1.40;74.98;99607.69;5123834;27;20063;-59
2022/02/15 05:16:59;;;;;;;13.65;6.70;;;;;;;-1.22;74.76;99643.63;5113498;27;20254;-59
2022/02/15 05:19:29;;;;;;;8.85;4.75;;;;;;;-1.15;74.67;99654.78;5116569;27;20046;-57
2022/02/15 05:22:01;;;;;;;12.88;5.18;;;;;;;-1.17;74.65;99642.00;5129966;27;20425;-57
2022/02/15 05:24:30;;;;;;;15.13;7.20;;;;;;;-1.15;74.74;99640.28;5134624;27;20069;-58
2022/02/15 05:26:58;;;;;;;12.65;6.70;;;;;;;-1.24;74.31;99630.00;5113889;27;20066;-55
2022/02/15 05:29:37;;;;;;;;;;;;;;;-1.08;74.17;99647.19;5115280;27;20065;-57
2022/02/15 05:32:23;;;;;;;10.80;5.18;;;;;;;-1.06;73.83;99645.53;5133072;27;20003;-56
2022/02/15 05:34:51;;;;;;;16.80;6.00;;;;;;;-0.99;73.65;99646.44;5113387;27;20039;-55
2022/02/15 05:37:18;;;;;;;16.40;6.55;;;;;;;-0.89;73.20;99635.50;5115111;27;20537;-58
2022/02/15 05:39:48;;;;;;;16.77;7.00;;;;;;;-0.74;72.43;99643.31;5132923;27;20481;-58
2022/02/15 05:42:20;;;;;;;10.70;4.53;;;;;;;-0.54;71.67;99658.84;5112061;28;20104;-55
2022/02/15 05:44:45;;;;;;;7.85;3.97;;;;;;;-0.32;70.45;99663.31;5113533;28;20043;-60
2022/02/15 05:47:11;;;;;;;16.42;6.03;;;;;;;-0.22;70.18;99654.88;5120293;27;20039;-54
2022/02/15 05:52:39;;;;;;;11.07;5.30;;;;;;;0.03;68.79;99660.16;5085903;28;20055;-56
2022/02/15 05:55:11;;;;;;;11.45;5.72;;;;;;;0.11;68.07;99641.47;5089384;27;20046;-54
2022/02/15 05:57:38;;;;;;;13.18;5.65;;;;;;;0.44;67.01;99663.84;5098289;27;20069;-54
2022/02/15 06:00:11;;;;;;;15.18;6.97;;;;;;;0.73;66.14;99669.97;5116756;27;20081;-54
2022/02/15 06:02:46;;;;;;;14.50;5.20;;;;;;;1.10;64.27;99670.97;5102811;27;20044;-53
2022/02/15 06:05:34;;;;;;;16.10;7.00;;;;;;;1.46;63.18;99666.81;5115245;27;20123;-55
2022/02/15 06:08:01;;;;;;;9.70;5.00;;;;;;;1.90;61.15;99677.09;5129509;27;20042;-56
2022/02/15 06:10:31;;;;;;;10.18;4.95;;;;;;;2.12;60.05;99673.69;5130903;27;20031;-53
2022/02/15 06:13:15;;;;;;;13.90;6.22;;;;;;;2.45;59.24;99662.53;5128927;27;20046;-55
2022/02/15 06:15:42;;;;;;;8.23;5.07;;;;;;;2.94;57.66;99668.34;5120208;27;20064;-54
2022/02/15 06:18:11;;;;;;;;;;;;;;;2.70;57.51;99679.56;5100474;27;20108;-53
2022/02/15 06:20:42;;;;;;;8.68;4.32;;;;;;;2.71;57.30;99672.72;5130965;27;19919;-52
2022/02/15 06:23:09;;;;;;;12.68;6.28;;;;;;;3.27;56.91;99675.91;5098574;27;20083;-60
2022/02/15 06:25:35;;;;;;;8.68;4.80;;;;;;;3.89;54.73;99681.50;5097173;27;20042;-48
2022/02/15 06:28:01;;;;;;;15.00;6.38;;;;;;;4.18;53.20;99683.00;5131679;27;20051;-52
2022/02/15 06:31:05;;;;;;;7.82;4.53;;;;;;;4.05;52.65;99686.53;5104223;27;20046;-53
2022/02/15 06:33:35;;;;;;;10.30;6.07;;;;;;;4.43;53.21;99675.03;5097593;27;20046;-55
2022/02/15 06:36:03;;;;;;;9.07;5.53;;;;;;;4.91;51.00;99681.41;5132710;27;20043;-53
2022/02/15 06:38:29;;;;;;;10.98;6.15;;;;;;;4.72;50.86;99661.84;5076709;28;20048;-50
2022/02/15 06:41:15;;;;;;;10.23;5.47;;;;;;;4.91;50.73;99692.56;5105046;27;20038;-52
2022/02/15 06:44:01;;;;;;;13.27;6.82;;;;;;;5.24;49.92;99696.44;5135491;27;20515;-58
2022/02/15 06:46:35;;;;;;;11.45;6.13;;;;;;;5.58;48.66;99714.91;5112334;28;20103;-55
2022/02/15 06:49:07;;;;;;;8.43;5.35;;;;;;;5.67;48.03;99691.56;5116317;27;20038;-53
2022/02/15 06:51:33;;;;;;;9.20;4.97;;;;;;;5.91;47.34;99691.22;5109868;28;20425;-53
2022/02/15 06:54:08;;;;;;;12.32;5.57;;;;;;;6.17;47.22;99708.03;5127376;27;20053;-57
2022/02/15 06:56:56;;;;;;;10.95;5.80;;;;;;;6.50;45.62;99694.53;5108693;27;20121;-59
2022/02/15 06:59:27;;;;;;;11.95;6.07;;;;;;;6.40;46.43;99693.00;5113546;27;20043;-53
2022/02/15 07:01:53;;;;;;;12.35;6.10;;;;;;;6.62;45.67;99691.75;5113672;27;20049;-54
2022/02/15 07:04:19;;;;;;;13.75;6.07;;;;;;;6.47;45.22;99704.94;5102708;27;20142;-56
2022/02/15 07:06:47;;;;;;;12.70;6.35;;;;;;;6.58;45.03;99702.16;5112740;27;20050;-55
2022/02/15 07:09:13;;;;;;;14.30;5.38;;;;;;;6.58;44.65;99702.16;5115639;27;20051;-56
2022/02/15 07:11:57;;;;;;;8.65;4.70;;;;;;;6.43;45.07;99711.03;5124684;27;20126;-56
2022/02/15 07:14:24;;;;;;;12.43;6.78;;;;;;;6.45;44.98;99708.41;5099344;27;20043;-58
2022/02/15 07:16:55;;;;;;;6.93;4.25;;;;;;;6.48;44.73;99710.94;5115685;27;20152;-55
2022/02/15 07:19:22;;;;;;;13.23;6.95;;;;;;;6.49;44.99;99710.06;5118901;27;20575;-51
2022/02/15 07:22:17;;;;;;;9.90;5.38;;;;;;;6.64;43.92;99709.81;5072399;28;20088;-55
2022/02/15 07:24:53;;;;;;;12.95;6.32;;;;;;;7.08;43.46;99708.94;5114000;27;20066;-51
2022/02/15 07:27:34;;;;;;;10.88;6.20;;;;;;;7.60;42.67;99719.91;5145290;27;20049;-50
2022/02/15 07:30:07;;;;;;;11.98;6.57;;;;;;;7.64;42.23;99721.53;5134126;27;20054;-56
2022/02/15 07:32:48;;;;;;;13.27;5.95;;;;;;;7.35;42.81;99713.56;5090816;27;20103;-52
2022/02/15 07:35:14;;;;;;;12.85;6.25;;;;;;;7.45;42.39;99722.84;5127334;27;20043;-55
2022/02/15 07:37:40;;;;;;;10.48;6.60;;;;;;;7.36;43.00;99710.09;5131799;27;20042;-59
2022/02/15 07:40:06;;;;;;;12.18;6.10;;;;;;;7.58;42.19;99719.13;5136921;27;20066;-50
2022/02/15 07:42:32;;;;;;;11.18;6.57;;;;;;;7.97;41.54;99724.25;5136694;27;20074;-53
2022/02/15 07:45:04;;;;;;;13.27;5.30;;;;;;;8.04;41.25;99712.88;5116542;27;20129;-52
2022/02/15 07:47:31;;;;;;;10.80;6.60;;;;;;;8.99;39.86;99721.72;5131715;27;20054;-51
2022/02/15 07:49:56;;;;;;;11.75;6.68;;;;;;;9.70;37.73;99722.25;5113232;27;20035;-56
2022/02/15 07:52:22;;;;;;;15.88;6.00;;;;;;;9.78;37.19;99730.66;5112219;27;20062;-53
2022/02/15 07:54:48;;;;;;;11.40;5.93;;;;;;;9.07;38.31;99732.72;5133557;27;20039;-55
2022/02/15 07:57:13;;;;;;;13.57;6.60;;;;;;;8.84;39.14;99715.22;5131423;27;20038;-51
2022/02/15 07:59:39;;;;;;;11.32;5.97;;;;;;;9.35;37.92;99710.31;5131316;27;20146;-50
2022/02/15 08:02:05;;;;;;;11.27;6.43;;;;;;;9.37;38.12;99718.06;5112609;27;20454;-54
2022/02/15 08:04:31;;;;;;;9.95;5.57;;;;;;;9.68;37.54;99714.50;5112134;28;20043;-53
2022/02/15 08:07:00;;;;;;;12.93;6.80;;;;;;;9.98;37.46;99710.13;5113018;28;20054;-52
2022/02/15 08:09:25;;;;;;;10.43;6.00;;;;;;;10.82;35.77;99710.81;5112740;28;20045;-54
2022/02/15 08:11:57;;;;;;;13.00;6.72;;;;;;;11.37;34.64;99706.19;5130817;28;20031;-50
2022/02/15 08:14:24;;;;;;;22.70;7.15;;;;;;;11.36;34.07;99709.69;5130567;28;20043;-54
2022/02/15 08:16:52;;;;;;;20.95;7.00;;;;;;;11.78;33.80;99702.06;5118940;28;20059;-53
2022/02/15 08:19:23;;;;;;;9.77;6.70;;;;;;;11.78;33.70;99694.25;5113426;28;20043;-49
2022/02/15 08:21:49;;;;;;;10.55;5.93;;;;;;;12.07;33.13;99706.97;5133241;27;20486;-49
2022/02/15 08:24:14;;;;;;;12.23;6.40;;;;;;;11.20;33.81;99716.41;5129687;28;20096;-53
2022/02/15 08:26:40;;;;;;;10.30;6.35;;;;;;;10.76;34.54;99715.38;5129130;28;20126;-50
2022/02/15 08:29:06;;;;;;;11.85;6.70;;;;;;;11.00;34.81;99712.75;5130984;28;20035;-50
2022/02/15 08:31:32;;;;;;;9.57;5.40;;;;;;;11.63;33.18;99680.03;5130605;28;20043;-52
2022/02/15 08:33:58;;;;;;;13.07;6.70;;;;;;;11.72;33.00;99704.88;5129639;28;20036;-52
2022/02/15 08:36:24;;;;;;;9.85;5.65;;;;;;;11.73;32.73;99704.84;5130356;28;20463;-52
2022/02/15 08:38:50;;;;;;;9.38;6.20;;;;;;;12.24;32.90;99698.50;5112977;28;20051;-52
2022/02/15 08:41:17;;;;;;;9.68;6.22;;;;;;;12.49;32.53;99707.00;5130104;28;20567;-52
2022/02/15 08:43:43;;;;;;;10.43;5.95;;;;;;;13.21;31.15;99711.72;5112934;28;20043;-52
2022/02/15 08:46:08;;;;;;;10.20;5.63;;;;;;;12.83;31.00;99689.88;5131022;28;20422;-50
2022/02/15 08:48:36;;;;;;;10.43;6.18;;;;;;;12.27;32.06;99707.03;5139235;27;20038;-52
2022/02/15 08:51:02;;;;;;;11.10;6.05;;;;;;;11.56;32.74;99711.59;5133014;27;20042;-50
2022/02/15 08:53:28;;;;;;;11.60;6.10;;;;;;;11.48;33.45;99711.88;5138633;27;20461;-53
2022/02/15 08:55:54;;;;;;;13.23;6.32;;;;;;;11.92;32.55;99714.56;5121559;27;20072;-49
2022/02/15 08:58:21;;;;;;;10.18;6.40;;;;;;;11.25;33.88;99715.31;5114252;28;20027;-46
2022/02/15 09:00:47;;;;;;;11.52;6.22;;;;;;;11.68;32.96;99716.31;5133805;27;20088;-48
2022/02/15 09:03:14;;;;;;;10.88;5.82;;;;;;;11.85;32.29;99708.72;5129458;27;20047;-52
2022/02/15 09:05:40;;;;;;;7.55;4.78;;;;;;;12.48;31.73;99720.09;5130586;27;20047;-55
2022/02/15 09:08:06;;;;;;;10.52;6.18;;;;;;;12.02;32.29;99710.69;5111649;28;20046;-52
2022/02/15 09:10:32;;;;;;;9.98;6.47;;;;;;;11.46;33.07;99718.91;5113205;27;20398;-49
2022/02/15 09:12:57;;;;;;;11.82;6.38;;;;;;;11.38;33.33;99719.16;5133982;27;20529;-52
2022/02/15 09:15:23;;;;;;;9.77;6.10;;;;;;;11.17;33.26;99708.69;5133029;27;20046;-53
2022/02/15 09:17:48;;;;;;;11.38;6.57;;;;;;;11.60;33.13;99701.00;5133883;27;20043;-50
2022/02/15 09:20:14;;;;;;;9.50;5.28;;;;;;;11.77;32.49;99698.63;5137375;27;20046;-51
2022/02/15 09:22:41;;;;;;;10.68;5.57;;;;;;;11.86;32.19;99705.22;5119874;27;20445;-49
2022/02/15 09:25:07;;;;;;;11.35;6.45;;;;;;;12.00;32.74;99712.47;5127419;27;20534;-49
2022/02/15 09:27:33;;;;;;;16.83;6.32;;;;;;;12.19;31.88;99701.28;5132940;27;20436;-50
2022/02/15 09:29:59;;;;;;;11.63;6.18;;;;;;;12.66;31.86;99720.19;5116144;27;20043;-49
2022/02/15 09:32:25;;;;;;;9.07;5.80;;;;;;;12.89;31.03;99718.31;5134233;27;20080;-51
2022/02/15 09:34:50;;;;;;;10.38;5.88;;;;;;;12.90;31.01;99715.66;5115988;27;20121;-50
2022/02/15 09:37:16;;;;;;;11.40;6.55;;;;;;;12.82;31.03;99696.88;5108208;27;20538;-50
2022/02/15 09:39:42;;;;;;;12.98;6.32;;;;;;;12.51;31.54;99715.56;5143760;27;20066;-51
2022/02/15 09:42:08;;;;;;;12.52;6.20;;;;;;;12.86;31.39;99714.09;5115739;27;20046;-52
2022/02/15 09:44:34;;;;;;;13.10;5.43;;;;;;;13.28;30.44;99700.97;5113565;27;20090;-49
2022/02/15 09:47:00;;;;;;;9.13;5.35;;;;;;;13.29;30.09;99717.47;5115541;27;20050;-53
2022/02/15 09:52:11;;;;;;;11.65;7.22;;;;;;;14.19;29.65;99695.78;5132838;27;20047;-52
2022/02/15 09:54:38;;;;;;;14.70;6.28;;;;;;;14.08;29.19;99719.00;5113124;27;20091;-48
2022/02/15 09:57:04;;;;;;;10.68;5.60;;;;;;;13.98;29.38;99727.25;5115059;27;20514;-51
2022/02/15 09:59:30;;;;;;;12.10;6.30;;;;;;;13.25;30.42;99719.34;5112547;27;20444;-49
2022/02/15 10:01:56;;;;;;;9.68;6.03;;;;;;;13.49;30.46;99720.03;5138757;27;20049;-51
2022/02/15 10:04:32;;;;;;;10.18;7.00;;;;;;;13.01;30.90;99717.81;5127336;27;20039;-49
2022/02/15 10:07:01;;;;;;;11.82;7.07;;;;;;;12.06;32.78;99720.91;5115478;27;20093;-53
2022/02/15 10:09:28;;;;;;;9.30;5.82;;;;;;;10.97;33.53;99714.63;5138523;27;20113;-56
2022/02/15 10:12:04;;;;;;;10.88;6.85;;;;;;;10.12;35.14;99723.50;5140101;27;20109;-55
2022/02/15 10:14:30;;;;;;;11.50;6.63;;;;;;;9.67;36.08;99711.97;5133609;27;20047;-53
2022/02/15 10:16:56;;;;;;;10.77;5.63;;;;;;;9.03;37.12;99706.03;5113376;27;20513;-50
2022/02/15 10:19:29;;;;;;;11.35;6.13;;;;;;;8.33;38.93;99732.94;5137552;27;20054;-49
2022/02/15 10:22:00;;;;;;;10.90;6.28;;;;;;;7.84;39.73;99723.72;5132737;27;20031;-51
2022/02/15 10:24:28;;;;;;;12.48;6.20;;;;;;;7.47;40.59;99722.81;5132454;27;20046;-48
2022/02/15 10:26:59;;;;;;;9.68;5.90;;;;;;;7.36;40.88;99725.63;5134376;27;20499;-50
2022/02/15 10:29:26;;;;;;;10.82;5.53;;;;;;;7.07;42.32;99720.16;5147380;27;20042;-51
2022/02/15 10:32:00;;;;;;;7.55;4.43;;;;;;;6.89;42.61;99738.63;5148433;27;20033;-53
2022/02/15 10:34:27;;;;;;;8.90;4.75;;;;;;;6.78;43.07;99719.00;5118145;27;20039;-50
2022/02/15 10:37:00;;;;;;;11.07;6.05;;;;;;;6.74;42.88;99725.13;5113035;27;20035;-55
2022/02/15 10:39:40;;;;;;;13.65;6.45;;;;;;;6.79;42.95;99730.19;5113705;27;20090;-54
2022/02/15 10:42:15;;;;;;;8.65;4.55;;;;;;;6.68;43.22;99732.97;5131774;27;20394;-54
2022/02/15 10:44:51;;;;;;;10.25;5.72;;;;;;;6.68;43.78;99727.81;5132150;27;20047;-53
2022/02/15 10:47:16;;;;;;;6.47;3.10;;;;;;;6.55;44.16;99741.78;5117680;27;20480;-53
2022/02/15 10:49:42;;;;;;;12.75;6.20;;;;;;;6.29;44.80;99720.72;5131006;27;20046;-52
2022/02/15 10:52:10;;;;;;;11.60;6.25;;;;;;;6.68;44.01;99725.22;5114019;27;20035;-52
2022/02/15 10:54:40;;;;;;;7.35;4.47;;;;;;;7.27;43.13;99728.41;5131647;27;20039;-47
2022/02/15 10:57:10;;;;;;;12.73;6.40;;;;;;;8.33;41.13;99707.03;5131317;27;20051;-49
2022/02/15 10:59:36;;;;;;;14.75;6.10;;;;;;;9.08;39.79;99734.44;5113489;27;20061;-49
2022/02/15 11:02:03;;;;;;;13.68;6.22;;;;;;;10.10;37.48;99733.09;5130190;27;20042;-48
2022/02/15 11:04:34;;;;;;;10.65;5.75;;;;;;;10.88;36.84;99738.34;5143180;27;20070;-50
2022/02/15 11:07:06;;;;;;;10.48;6.07;;;;;;;11.58;35.28;99723.63;5135795;27;20118;-54
2022/02/15 11:10:07;;;;;;;9.90;6.22;;;;;;;11.91;33.90;99723.28;5082531;27;20053;-52
2022/02/15 11:12:43;;;;;;;11.07;6.50;;;;;;;12.04;34.78;99729.69;5095199;28;20050;-51
2022/02/15 11:15:10;;;;;;;9.55;6.05;;;;;;;12.62;33.93;99725.56;5109417;27;20039;-49
2022/02/15 11:17:45;;;;;;;10.80;5.57;;;;;;;12.14;33.69;99737.09;5096477;28;20422;-50
2022/02/15 11:20:15;;;;;;;8.63;5.05;;;;;;;11.50;33.76;99730.88;5077225;28;20040;-51
2022/02/15 11:22:47;;;;;;;10.05;4.80;;;;;;;11.86;33.82;99745.16;5107975;27;20422;-50
2022/02/15 11:25:13;;;;;;;9.68;5.50;;;;;;;11.50;33.91;99724.84;5093618;28;20035;-52
2022/02/15 11:27:39;;;;;;;14.38;6.53;;;;;;;11.53;34.20;99725.56;5105566;27;20045;-49
2022/02/15 11:30:14;;;;;;;10.30;5.63;;;;;;;11.74;34.09;99743.00;5080720;27;20039;-55
2022/02/15 11:32:43;;;;;;;10.10;5.85;;;;;;;11.46;33.47;99716.28;5112923;28;20043;-50
2022/02/15 11:35:16;;;;;;;14.95;6.30;;;;;;;11.92;33.86;99720.63;5096006;27;20560;-50
2022/02/15 11:37:43;;;;;;;12.00;6.78;;;;;;;12.38;32.60;99710.94;5130968;27;20088;-52
2022/02/15 11:40:12;;;;;;;13.15;6.60;;;;;;;12.66;32.33;99728.00;5113980;27;20086;-55
2022/02/15 11:42:51;;;;;;;9.07;6.00;;;;;;;13.08;31.94;99722.66;5108639;28;20067;-51
2022/02/15 11:45:25;;;;;;;11.20;5.18;;;;;;;13.15;31.25;99723.28;5102067;28;20035;-52
2022/02/15 11:47:51;;;;;;;11.35;6.20;;;;;;;13.50;30.90;99727.78;5077087;28;20090;-54
2022/02/15 11:50:17;;;;;;;14.18;6.70;;;;;;;13.12;31.32;99724.28;5060034;28;20043;-52